AirNav   Air Wisconsin Up To $57,000 Bonus
 
 1004 users online  

33AR Skypoint Estates Airport
Greers Ferry, Arkansas, USA

GOING TO GREERS FERRY?


FAA INFORMATION EFFECTIVE 15 AUGUST 2019

Location

FAA Identifier: 33AR
Lat/Long: 35-36-08.0000N 092-08-33.0000W
35-36.133333N 092-08.550000W
35.6022222,-92.1425000
(estimated)
Elevation: 547 ft. / 167 m (estimated)
From city: 2 miles NE of GREERS FERRY, AR
Time zone: UTC -5 (UTC -6 during Standard Time)
Zip code: 72067

Airport Operations

Airport use: Private use. Permission required prior to landing
Activation date: 02/2005
Control tower: no
ARTCC: MEMPHIS CENTER
FSS: JONESBORO FLIGHT SERVICE STATION
Attendance: UNATNDD
Segmented circle: no

Airport Communications

UNICOM: 122.7
WX AWOS-3 at CCA (15 nm W): 118.725 (501-745-5000)

Nearby radio navigation aids

NDB name  Hdg/Dist  Freq  Var  ID
TONEYVILLE350/39.429001ETYV - -.-- ...-

Airport Services

Runway Information

Runway 9/27

Dimensions: 2300 x 100 ft. / 701 x 30 m
Surface: turf
RUNWAY 9  RUNWAY 27
Traffic pattern: leftleft
Obstructions: none30 ft. pline, 1800 ft. from runway

Airport Ownership and Management from official FAA records

Ownership: Privately-owned
Owner: SKYPOINT SURBURBAN IMPROVEMENT DIST
212 AIRPORT ROAD
EDGEMONT, AR 72044
Phone 501-825-7842
Manager: RAY DEARMON
212 AIRPORT RD
EDGEMONT, AR 72044
Phone 501-825-8551
CONTACT CO-MANAGER - PHILLIP GIST 801-825-7569

Additional Remarks

FOR CD CTC MEMPHIS ARTCC AT 901-368-8453.

Instrument Procedures

There are no published instrument procedures at 33AR.

Some nearby airports with instrument procedures:

KHBZ - Heber Springs Municipal Airport (8 nm SE)
2A2 - Holley Mountain Airpark (13 nm W)
KCCA - Clinton Municipal Airport (15 nm W)
7M2 - Mountain View Airport-Wilcox Memorial Field (16 nm N)
KBVX - Batesville Regional Airport (25 nm E)
 
Loc | Ops | Rwys | IFR | FBO | Links
Com | Nav | Svcs | Stats | Notes
Area around 33AR (Skypoint Estates Airport)
 
Road maps at: MapQuest Bing Google
 
Aerial photo
No photo
 
Sectional chart

 
Airport distance calculator
Flying to Skypoint Estates Airport? Find the distance to fly.

From to 33AR

Sunrise and sunset
Times for 18-Aug-2019
 Local
(UTC-5)
 Zulu
(UTC)
Morning civil twilight06:0411:04
Sunrise06:3111:31
Sunset19:5400:54
Evening civil twilight20:2101:21

Current date and time
Zulu (UTC)  19-Aug-2019 00:54:28
Local (UTC-5)  18-Aug-2019 19:54:28
 
METAR
KCCA 
15nm W 
190035Z AUTO 00000KT 10SM CLR 27/24 A2991 RMK AO2
KBVX 
25nm E 
182356Z AUTO 13004KT 10SM CLR 31/25 A2990 RMK AO2 SLP120 6//// T03060250 10328 20300 53004 PNO $
KSRC 
29nm SE 
182356Z AUTO 19003KT 9SM CLR 29/23 A2988 RMK AO2 SLP117 T02940233 10344 20283 58003
TAF
KLRF 
41nm S 
182300Z 1823/2005 19009KT 9999 SCT150 QNH2987INS BECMG 1905/1906 VRB06KT 9999 FEW035 BKN150 QNH2992INS BECMG 1916/1917 24012KT 9999 SCT180 QNH2992INS BECMG 2001/2002 VRB06KT 9999 FEW035 SCT180 QNH2996INS TX35/1920Z TN26/1911Z
KBPK 
48nm N 
181859Z 1819/1918 21008KT P6SM VCTS SCT030CB BKN250 TEMPO 1819/1821 4SM -SHRA BR BKN030 FM182300 17006KT P6SM SCT050 BKN250 FM190300 17007KT P6SM SCT250 TEMPO 1910/1914 5SM BR
NOTAMs
Click for the latest NOTAMs
NOTAMs are issued by the DoD/FAA and will open in a separate window not controlled by AirNav.

 

 
 

Would you like to see your business listed on this page?

 If your business provides an interesting product or service to pilots, flight crews, aircraft, or users of the Skypoint Estates Airport, you should consider listing it here.  To start the listing process, click on the button below
 
Add a business
 

Other Pages about Skypoint Estates Airport

Update a link
 
Copyright © AirNav, LLC. All rights reserved. Privacy Policy  Contact